Архив погоды в Уаките

Метеограмма Уакит
Понедельник, 18 Июня
Время местн. Темп Ветер Видим Явления Облачность нижн/средн/верх Атм. давл. Влжн Точка росы ВНГО R Сост. почвы Tg s
Напр Скр Прв ур.ст ур.м изм
11:00 - +14.9° С-З 8 12 - - - 665 634 +0.5 56% +6.3° - - - - -
08:00 +15° З 3 - более 50 км - облачно 665 634 +0.5 53% +5.4° 1.5 км 0 Влажная (без луж) +8° -
05:00 - +9.4° Ю,Ю-З 1 - - - - 664 633 0 68% +3.9° - - - - -
02:00 +12° З 3 - - - переменная облачность 664 633 +0.2 53% +2.7° 1.5 км - - - -
Воскресенье, 17 Июня
Время местн. Темп Ветер Видим Явления Облачность нижн/средн/верх Атм. давл. Влжн Точка росы ВНГО R Сост. почвы Tg s
Напр Скр Прв ур.ст ур.м изм
23:00 - +12.9° С-З 4 - - - - 664 633 +0.5 49% +2.5° - - - - -
20:00 +16.9° С-З 4 11 более 50 км - облачно с прояснениями 664 633 +0.3 38% +2.6° 1.5 км 0 - - -
14:00 +19.8° В,Ю-В 1 - более 50 км - переменная облачность 663 633 -0.9 28% +0.6° 1.5 км - - - -
11:00 - +17.2° С 2 - - - - 664 633 -0.6 37% +2.3° - - - - -
08:00 +13.5° Ю,Ю-В 2 - 50 км - незначительная облачность 665 634 -0.2 65% +7° 1.5 км 0 Влажная (без луж) - -
05:00 - +5.1° С-З 1 - - - - 665 633 +0.2 87% +3.1° - - - - -
02:00 +6° Ю,Ю-З 1 - - - переменная облачность 665 633 0 88% +4.1° более 2.5 км - - - -
Суббота, 16 Июня
Время местн. Темп Ветер Видим Явления Облачность нижн/средн/верх Атм. давл. Влжн Точка росы ВНГО R Сост. почвы Tg s
Напр Скр Прв ур.ст ур.м изм
23:00 - +10.9° С 1 - - - - 665 634 +0.6 70% +5.6° - - - - -
20:00 +16.1° С-В 2 - более 50 км - облачно 664 633 +0.5 40% +2.4° 1.5 км 0 - - -
17:00 - +18.9° С,С-В 3 - - - - 664 633 -0.4 30% +1.1° - - - - -
14:00 +18.7° В 1 - более 50 км - переменная облачность 664 634 -1.1 35% +2.9° 1.5 км - - - -
11:00 - +16.2° Ю 3 - - - - 665 634 -0.8 53% +6.5° - - - - -
08:00 +12.2° В,Ю-В 2 - более 50 км - переменная облачность 666 635 -0.2 64% +5.5° более 2.5 км 0 Влажная (без луж) +5° -
05:00 - +4.6° В 1 - - - - 666 634 +0.1 89% +3° - - - - -
02:00 +5.5° С-З 2 - - - переменная облачность 666 634 +0.4 82% +2.7° 1.5 км - - - -
Пятница, 15 Июня
Время местн. Темп Ветер Видим Явления Облачность нижн/средн/верх Атм. давл. Влжн Точка росы ВНГО R Сост. почвы Tg s
Напр Скр Прв ур.ст ур.м изм
23:00 - +10.4° С 1 - - - - 666 634 +1 59% +2.7° - - - - -
20:00 +12.5° С-З 2 - 50 км - переменная облачность 665 634 +1 51% +2.7° 1.5 км 0 - - -
17:00 - +17.5° В,С-В 4 - - - - 664 633 -0.2 34% +1.5° - - - - -
14:00 +15.1° З,С-З 4 - более 50 км - переменная облачность 664 633 -0.4 39% +1.1° 1.5 км - - - -
11:00 - +15.5° В,Ю-В 3 - - - - 664 634 -0.4 40% +2.1° - - - - -
08:00 +12.6° В,С-В 2 - более 50 км - переменная облачность 665 634 -0.2 52% +2.9° 1.5 км 0 Влажная (без луж) +2° -
05:00 - +2.7° З 1 - - - - 665 633 +0.2 88% +0.9° - - - - -